d.16/8 - Nu er de lyse nætter slut. Synlige planeter lige efter solnedgang, ikke så højt over horisonten: Jupiter mod sydvest, Saturn lidt sydligere og Mars mod sydøst.


Vejr3>N more information Vejr3>N


Vejr3>V more information Vejr3>V


3 timers nedbørs radar more information rain snow radar


besøg nogle andre vejrsider:

Template dokumentation
og downloads

And another site


Select another period ( hide this area )

enheder periode Custom range Directly to
metrisk engelsk både
dagens ugenligt månedlig årligt
use both date-selectors for a custom range
forgående dag
With this date

WeatherUnderground graphs for this period ( click here )


dagens sammenfatning af tirsdag 16 oktober 2018
tid Temp. ( °C ) Dew pt. ( °C ) vind ( km/h ) fra vindstød ( km/h ) lufttryk ( hPa ) Humid.( % ) Rainrate ( cm ) solenergi ( W/m2 )
høj13,8 12,2 13,0 sø ( 185/510 ) 8,4 1015,9 96 - 216
gennemsnit11,4 10,0 4,0 stille #38/127 2,4 1014,0 91 - 59 #34/127
lav10,1 9,1 -   0,0 1012,9 81 -  
dagens Tabular details for tirsdag 16 oktober 2018
tid Temp. ( °C ) Dew pt. ( °C ) vind ( km/h ) fra vindstød ( km/h ) lufttryk ( hPa ) Humid.( % ) Rainrate ( cm ) solenergi ( W/m2 )
00:04 13,8 10,6 13,0 ssø 7,9 1012,9 81 - -
00:07 13,8 10,6 11,1 7,6 1012,9 81 - -
00:14 13,8 10,6 8,0 syd 7,1 1013,0 81 - -
00:19 13,8 10,6 9,3 ssø 7,1 1013,0 81 - -
00:24 13,8 10,6 6,4 syd 3,5 1013,0 81 - -
00:29 13,7 10,4 6,4 syd 4,0 1013,0 81 - -
00:34 13,5 10,5 8,0 ssø 6,4 1012,9 82 - -
00:39 13,3 10,3 9,3 syd 6,3 1013,0 82 - -
00:44 13,3 10,4 9,7 ssø 6,8 1013,1 83 - -
00:49 13,2 10,4 5,6 nv 1,4 1013,2 83 - -
00:54 13,0 10,2 9,3 vnv 6,6 1013,3 83 - -
00:59 12,8 9,9 5,6 vnv 3,4 1013,3 83 - -
01:04 12,6 9,9 5,6 ssø 2,1 1013,3 84 - -
01:09 12,4 9,9   stille   1013,3 85 - -
01:14 12,2 9,8   stille   1013,3 85 - -
01:19 12,0 9,7 9,3 ssø 6,0 1013,2 86 - -
01:24 11,9 9,8   stille   1013,4 87 - -
01:29 11,8 9,7 5,6 ssø 3,2 1013,3 87 - -
01:34 11,7 9,6 5,6 vnv 2,4 1013,5 87 - -
01:39 11,6 9,6 5,6 ssø 0,6 1013,4 88 - -
01:44 11,4 9,5 3,7 ssø 0,6 1013,4 88 - -
01:49 11,3 9,6   stille   1013,4 89 - -
01:54 11,3 9,6 5,6 3,4 1013,4 89 - -
01:59 11,3 9,6   stille   1013,5 89 - -
02:04 11,2 9,5 4,8 1,8 1013,5 89 - -
02:09 11,2 9,7 11,1 8,4 1013,4 90 - -
02:14 11,3 9,9 8,0 6,8 1013,5 91 - -
02:19 11,4 9,9 9,3 8,2 1013,4 90 - -
02:24 11,4 9,9 7,4 6,0 1013,4 90 - -
02:29 11,5 9,9 9,7 ssø 6,8 1013,4 90 - -
02:34 11,6 10,0 9,3 ssø 5,0 1013,5 90 - -
02:39 11,7 10,1 8,0 6,4 1013,3 90 - -
02:44 11,7 9,9 8,0 6,4 1013,1 89 - -
02:49 11,7 10,1 5,6 ssø 2,6 1013,2 90 - -
02:54 11,6 9,8   stille   1013,2 89 - -
02:59 11,6 10,0 5,6 ssø 3,9 1013,3 90 - -
03:04 11,6 9,9 6,4 5,1 1013,3 90 - -
03:09 11,4 9,9 5,6 3,9 1013,4 90 - -
03:14 11,4 9,8 3,2 ssø 1,4 1013,4 90 - -
03:19 11,3 9,8 5,6 ssø 3,2 1013,4 90 - -
03:24 11,3 9,9 8,0 ssø 5,5 1013,4 91 - -
03:29 11,3 9,9 5,6 ssø 4,8 1013,4 91 - -
03:34 11,3 9,9 3,7 ssø 0,5 1013,5 91 - -
03:39 11,3 9,9   stille   1013,5 91 - -
03:44 11,2 9,7   stille   1013,5 90 - -
03:49 11,1 9,6 1,9 ssø   1013,4 90 - -
03:54 10,9 9,6 5,6 3,2 1013,4 91 - -
03:59 10,9 9,7 5,6 ssø 3,2 1013,5 92 - -
04:04 10,9 9,7   stille   1013,5 92 - -
04:09 10,9 9,7 3,7 ssø 1,8 1013,5 92 - -
04:14 10,9 9,7 1,9 ssø   1013,5 92 - -
04:19 10,8 9,6   stille   1013,5 92 - -
04:24 10,8 9,6   stille   1013,6 92 - -
04:29 10,7 9,4 5,6 2,7 1013,6 92 - -
04:34 10,6 9,4 6,4 5,5 1013,6 92 - -
04:39 10,7 9,6 8,0 6,9 1013,6 93 - -
04:44 10,9 9,9 6,4 5,8 1013,7 94 - -
04:49 11,1 9,9 5,6 øsø 4,2 1013,6 93 - -
04:54 11,1 9,8 1,9 øsø   1013,8 92 - -
04:59 11,1 9,8   stille   1013,8 92 - -
05:04 11,0 9,7   stille   1013,9 92 - -
05:09 10,9 9,7 3,7 øsø 1,4 1013,8 92 - -
05:14 10,9 9,7 5,6 øsø 3,4 1013,8 92 - -
05:19 10,8 9,6 5,6 øsø 3,9 1013,9 92 - -
05:24 10,8 9,7 1,9 øsø   1014,0 93 - -
05:29 10,8 9,7   stille   1014,1 93 - -
05:34 10,8 9,7   stille   1014,1 93 - -
05:39 10,7 9,6   stille   1014,1 93 - -
05:44 10,8 9,8 5,6 4,5 1014,1 94 - -
05:49 10,8 9,9 3,7 1,4 1014,1 94 - -
05:54 10,9 9,9   stille   1014,0 94 - -
05:59 10,9 10,0   stille   1014,0 94 - -
06:04 10,9 9,8   stille   1014,0 93 - -
06:09 10,9 9,8   stille   1014,0 93 - -
06:14 10,9 9,8   stille   1014,1 93 - -
06:19 10,9 9,8   stille   1014,1 93 - -
06:24 10,9 9,8   stille   1014,2 93 - -
06:29 10,9 9,9   stille   1014,2 94 - -
06:34 10,9 9,9   stille   1014,1 94 - -
06:39 10,9 10,0 3,2 øsø 0,5 1014,2 94 - -
06:44 11,0 10,1 3,7 øst 2,1 1014,2 94 - -
06:49 11,1 10,1 1,9 øst   1014,2 94 - -
06:54 11,1 10,1   stille   1014,1 94 - -
06:59 11,1 10,1 1,6 øst 1,1 1014,1 94 - -
07:04 11,1 10,1 1,9 øst   1014,1 94 - -
07:09 10,9 10,0   stille   1014,0 94 - -
07:14 10,9 9,8 3,2 øst 1,8 1014,1 93 - -
07:19 10,8 9,7 5,6 øst 3,9 1014,2 93 - -
07:24 10,7 9,8 5,6 øsø 3,5 1014,2 94 - -
07:29 10,7 9,7 5,6 øsø 4,3 1014,1 94 - -
07:34 10,7 9,7 6,4 4,8 1014,2 94 - -
07:39 10,6 9,7 7,4 5,6 1014,2 94 - -
07:44 10,6 9,7 6,4 øsø 5,5 1014,3 94 - -
07:49 10,5 9,6 11,3 6,9 1014,3 94 - 5
07:54 10,4 9,5 6,4 4,8 1014,4 94 - 9
07:59 10,3 9,4 6,4 5,5 1014,5 94 - 11
08:04 10,2 9,3 7,4 5,5 1014,5 94 - 12
08:09 10,2 9,2 5,6 4,7 1014,6 94 - 12
08:14 10,1 9,2   stille   1014,6 94 - 16
08:19 10,1 9,2   stille   1014,8 94 - 19
08:24 10,1 9,1   stille   1014,8 94 - 23
08:29 10,1 9,1   stille   1014,9 94 - 25
08:34 10,1 9,3   stille   1014,9 95 - 28
08:39 10,1 9,3   stille   1014,9 95 - 37
08:44 10,1 9,3 3,7 sv   1015,1 95 - 42
08:49 10,1 9,3 3,7 vest 1,0 1015,2 95 - 42
08:54 10,1 9,3 3,7 nv 0,5 1015,2 95 - 42
08:59 10,1 9,3   stille   1015,2 95 - 44
09:04 10,2 9,4   stille   1015,2 95 - 47
09:09 10,3 9,7   stille   1015,2 96 - 49
09:14 10,4 9,8 3,7 vnv 0,8 1015,3 96 - 49
09:19 10,6 10,0   stille   1015,3 96 - 53
09:24 10,8 10,2   stille   1015,3 96 - 54
09:29 10,9 10,3 3,7 vnv   1015,3 96 - 58
09:34 11,2 10,6 3,7 ssø 1,6 1015,3 96 - 62
09:39 11,4 10,8 5,6 ssø 3,1 1015,3 96 - 65
09:44 11,7 11,1 5,6 ssø 3,7 1015,3 96 - 69
09:49 11,9 11,3 7,4 2,7 1015,3 96 - 72
09:54 12,2 11,4 3,2 syd 1,4 1015,4 95 - 77
09:59 12,3 11,6 1,9 vnv 0,2 1015,5 95 - 83
10:04 12,6 11,6 8,0 vnv 2,6 1015,6 94 - 90
10:09 12,7 11,8 1,9 vnv 0,6 1015,7 94 - 148
10:14 12,9 11,9 3,7 vnv 0,2 1015,8 94 - 155
10:19 13,1 12,0 1,9 vnv 0,3 1015,9 93 - 98
10:24 13,2 11,9 3,2 vsv 1,4 1015,8 92 - 216
10:29 13,4 12,2 3,7 vsv 0,3 1015,8 92 - 90
10:34 13,6 12,1 5,6 sv   1015,8 91 - 90
dagens sammenfatning af tirsdag 16 oktober 2018
tid Temp. ( °C ) Dew pt. ( °C ) vind ( km/h ) fra vindstød ( km/h ) lufttryk ( hPa ) Humid.( % ) Rainrate ( cm ) solenergi ( W/m2 )
høj13,8 12,2 13,0 sø ( 185/510 ) 8,4 1015,9 96 - 216
gennemsnit11,4 10,0 4,0 stille #38/127 2,4 1014,0 91 - 59 #34/127
lav10,1 9,1 -   0,0 1012,9 81 -  
dagens Tabular details for tirsdag 16 oktober 2018
tid Temp. ( °C ) Dew pt. ( °C ) vind ( km/h ) fra vindstød ( km/h ) lufttryk ( hPa ) Humid.( % ) Rainrate ( cm ) solenergi ( W/m2 )
00:04 13,8 10,6 13,0 ssø 7,9 1012,9 81 - -
00:07 13,8 10,6 11,1 7,6 1012,9 81 - -
00:14 13,8 10,6 8,0 syd 7,1 1013,0 81 - -
00:19 13,8 10,6 9,3 ssø 7,1 1013,0 81 - -
00:24 13,8 10,6 6,4 syd 3,5 1013,0 81 - -
00:29 13,7 10,4 6,4 syd 4,0 1013,0 81 - -
00:34 13,5 10,5 8,0 ssø 6,4 1012,9 82 - -
00:39 13,3 10,3 9,3 syd 6,3 1013,0 82 - -
00:44 13,3 10,4 9,7 ssø 6,8 1013,1 83 - -
00:49 13,2 10,4 5,6 nv 1,4 1013,2 83 - -
00:54 13,0 10,2 9,3 vnv 6,6 1013,3 83 - -
00:59 12,8 9,9 5,6 vnv 3,4 1013,3 83 - -
01:04 12,6 9,9 5,6 ssø 2,1 1013,3 84 - -
01:09 12,4 9,9   stille   1013,3 85 - -
01:14 12,2 9,8   stille   1013,3 85 - -
01:19 12,0 9,7 9,3 ssø 6,0 1013,2 86 - -
01:24 11,9 9,8   stille   1013,4 87 - -
01:29 11,8 9,7 5,6 ssø 3,2 1013,3 87 - -
01:34 11,7 9,6 5,6 vnv 2,4 1013,5 87 - -
01:39 11,6 9,6 5,6 ssø 0,6 1013,4 88 - -
01:44 11,4 9,5 3,7 ssø 0,6 1013,4 88 - -
01:49 11,3 9,6   stille   1013,4 89 - -
01:54 11,3 9,6 5,6 3,4 1013,4 89 - -
01:59 11,3 9,6   stille   1013,5 89 - -
02:04 11,2 9,5 4,8 1,8 1013,5 89 - -
02:09 11,2 9,7 11,1 8,4 1013,4 90 - -
02:14 11,3 9,9 8,0 6,8 1013,5 91 - -
02:19 11,4 9,9 9,3 8,2 1013,4 90 - -
02:24 11,4 9,9 7,4 6,0 1013,4 90 - -
02:29 11,5 9,9 9,7 ssø 6,8 1013,4 90 - -
02:34 11,6 10,0 9,3 ssø 5,0 1013,5 90 - -
02:39 11,7 10,1 8,0 6,4 1013,3 90 - -
02:44 11,7 9,9 8,0 6,4 1013,1 89 - -
02:49 11,7 10,1 5,6 ssø 2,6 1013,2 90 - -
02:54 11,6 9,8   stille   1013,2 89 - -
02:59 11,6 10,0 5,6 ssø 3,9 1013,3 90 - -
03:04 11,6 9,9 6,4 5,1 1013,3 90 - -
03:09 11,4 9,9 5,6 3,9 1013,4 90 - -
03:14 11,4 9,8 3,2 ssø 1,4 1013,4 90 - -
03:19 11,3 9,8 5,6 ssø 3,2 1013,4 90 - -
03:24 11,3 9,9 8,0 ssø 5,5 1013,4 91 - -
03:29 11,3 9,9 5,6 ssø 4,8 1013,4 91 - -
03:34 11,3 9,9 3,7 ssø 0,5 1013,5 91 - -
03:39 11,3 9,9   stille   1013,5 91 - -
03:44 11,2 9,7   stille   1013,5 90 - -
03:49 11,1 9,6 1,9 ssø   1013,4 90 - -
03:54 10,9 9,6 5,6 3,2 1013,4 91 - -
03:59 10,9 9,7 5,6 ssø 3,2 1013,5 92 - -
04:04 10,9 9,7   stille   1013,5 92 - -
04:09 10,9 9,7 3,7 ssø 1,8 1013,5 92 - -
04:14 10,9 9,7 1,9 ssø   1013,5 92 - -
04:19 10,8 9,6   stille   1013,5 92 - -
04:24 10,8 9,6   stille   1013,6 92 - -
04:29 10,7 9,4 5,6 2,7 1013,6 92 - -
04:34 10,6 9,4 6,4 5,5 1013,6 92 - -
04:39 10,7 9,6 8,0 6,9 1013,6 93 - -
04:44 10,9 9,9 6,4 5,8 1013,7 94 - -
04:49 11,1 9,9 5,6 øsø 4,2 1013,6 93 - -
04:54 11,1 9,8 1,9 øsø   1013,8 92 - -
04:59 11,1 9,8   stille   1013,8 92 - -
05:04 11,0 9,7   stille   1013,9 92 - -
05:09 10,9 9,7 3,7 øsø 1,4 1013,8 92 - -
05:14 10,9 9,7 5,6 øsø 3,4 1013,8 92 - -
05:19 10,8 9,6 5,6 øsø 3,9 1013,9 92 - -
05:24 10,8 9,7 1,9 øsø   1014,0 93 - -
05:29 10,8 9,7   stille   1014,1 93 - -
05:34 10,8 9,7   stille   1014,1 93 - -
05:39 10,7 9,6   stille   1014,1 93 - -
05:44 10,8 9,8 5,6 4,5 1014,1 94 - -
05:49 10,8 9,9 3,7 1,4 1014,1 94 - -
05:54 10,9 9,9   stille   1014,0 94 - -
05:59 10,9 10,0   stille   1014,0 94 - -
06:04 10,9 9,8   stille   1014,0 93 - -
06:09 10,9 9,8   stille   1014,0 93 - -
06:14 10,9 9,8   stille   1014,1 93 - -
06:19 10,9 9,8   stille   1014,1 93 - -
06:24 10,9 9,8   stille   1014,2 93 - -
06:29 10,9 9,9   stille   1014,2 94 - -
06:34 10,9 9,9   stille   1014,1 94 - -
06:39 10,9 10,0 3,2 øsø 0,5 1014,2 94 - -
06:44 11,0 10,1 3,7 øst 2,1 1014,2 94 - -
06:49 11,1 10,1 1,9 øst   1014,2 94 - -
06:54 11,1 10,1   stille   1014,1 94 - -
06:59 11,1 10,1 1,6 øst 1,1 1014,1 94 - -
07:04 11,1 10,1 1,9 øst   1014,1 94 - -
07:09 10,9 10,0   stille   1014,0 94 - -
07:14 10,9 9,8 3,2 øst 1,8 1014,1 93 - -
07:19 10,8 9,7 5,6 øst 3,9 1014,2 93 - -
07:24 10,7 9,8 5,6 øsø 3,5 1014,2 94 - -
07:29 10,7 9,7 5,6 øsø 4,3 1014,1 94 - -
07:34 10,7 9,7 6,4 4,8 1014,2 94 - -
07:39 10,6 9,7 7,4 5,6 1014,2 94 - -
07:44 10,6 9,7 6,4 øsø 5,5 1014,3 94 - -
07:49 10,5 9,6 11,3 6,9 1014,3 94 - 5
07:54 10,4 9,5 6,4 4,8 1014,4 94 - 9
07:59 10,3 9,4 6,4 5,5 1014,5 94 - 11
08:04 10,2 9,3 7,4 5,5 1014,5 94 - 12
08:09 10,2 9,2 5,6 4,7 1014,6 94 - 12
08:14 10,1 9,2   stille   1014,6 94 - 16
08:19 10,1 9,2   stille   1014,8 94 - 19
08:24 10,1 9,1   stille   1014,8 94 - 23
08:29 10,1 9,1   stille   1014,9 94 - 25
08:34 10,1 9,3   stille   1014,9 95 - 28
08:39 10,1 9,3   stille   1014,9 95 - 37
08:44 10,1 9,3 3,7 sv   1015,1 95 - 42
08:49 10,1 9,3 3,7 vest 1,0 1015,2 95 - 42
08:54 10,1 9,3 3,7 nv 0,5 1015,2 95 - 42
08:59 10,1 9,3   stille   1015,2 95 - 44
09:04 10,2 9,4   stille   1015,2 95 - 47
09:09 10,3 9,7   stille   1015,2 96 - 49
09:14 10,4 9,8 3,7 vnv 0,8 1015,3 96 - 49
09:19 10,6 10,0   stille   1015,3 96 - 53
09:24 10,8 10,2   stille   1015,3 96 - 54
09:29 10,9 10,3 3,7 vnv   1015,3 96 - 58
09:34 11,2 10,6 3,7 ssø 1,6 1015,3 96 - 62
09:39 11,4 10,8 5,6 ssø 3,1 1015,3 96 - 65
09:44 11,7 11,1 5,6 ssø 3,7 1015,3 96 - 69
09:49 11,9 11,3 7,4 2,7 1015,3 96 - 72
09:54 12,2 11,4 3,2 syd 1,4 1015,4 95 - 77
09:59 12,3 11,6 1,9 vnv 0,2 1015,5 95 - 83
10:04 12,6 11,6 8,0 vnv 2,6 1015,6 94 - 90
10:09 12,7 11,8 1,9 vnv 0,6 1015,7 94 - 148
10:14 12,9 11,9 3,7 vnv 0,2 1015,8 94 - 155
10:19 13,1 12,0 1,9 vnv 0,3 1015,9 93 - 98
10:24 13,2 11,9 3,2 vsv 1,4 1015,8 92 - 216
10:29 13,4 12,2 3,7 vsv 0,3 1015,8 92 - 90
10:34 13,6 12,1 5,6 sv   1015,8 91 - 90

Download your copy of this data-set  here

Our weather-data as stored at Weather Underground. script udviklet af Jim McMurry. tilpasset til dette template Leuven-Template.eu

du finder også vores vejrinformationer på:

European Weather Network

Weather Underground

AWEKAS

WeatherlinkIP

Citizen Weather Observer Program (CWOP)

udstyr som vi anvender:

vejrstation
Davis VP2+

vejrprogram
Weather Display

vejrserver
Dell E6400

hjemmeside host
Webhosting.dk

Davis VP2+

Weather Display

Dell E6400

Webhosting.dk